»·PEaware :: SWA1221 KSAN-KSFO

SWA1221 :: KSAN-KSFO

FLIGHT INFORMATION

Flight Status: Arrived
Operator:
Southwest Airlines
More flights by this operator :: More flights under this callsign
Pilot: Manny R. (10936)
Aircraft: BOEING 737-300
(B733)
More flights by this aircraft type
Origin: KSAN San Diego Intl-Lindbergh
United States
Destination: KSFO San Francisco Intl
United States
More flights between these airports :: More routes between these airports
Route: PADRZ2 IKAYE RIZIN SPLNT STOKD SERFR SERFR3
File this flight plan on PilotEdge
Remarks:
Altitude:
(Current/Filed)
36,000ft
Speed:
(Current/Filed)
425kts
Departed: 27-Apr-18 07:20 PM
Arrived: 27-Apr-18 08:32 PM
Distance/Time
Traveled:
388nm/1:11
Distance/Time
To Go:
Arrived

Flight Plot

Page will automatically refresh every two minutes.

Flight plan parsing failed; only flown route is shown


Map Options




Map Legend


Flown Route
Filed Route
Departure Airport
Arrival Airport
Navaid (VOR, NDB)
Fix

Horizontal Profiles

Position Reports

Time Latitude Longitude Heading Altitude Ground
Speed
27-Apr-18 18:40 32.732753 -117.197003 132 19ft 0kts
27-Apr-18 18:41 32.732753 -117.197003 132 19ft 0kts
27-Apr-18 18:42 32.732753 -117.197003 132 19ft 0kts
27-Apr-18 18:43 32.732753 -117.197003 132 19ft 0kts
27-Apr-18 18:44 32.732753 -117.197003 132 19ft 0kts
27-Apr-18 18:45 32.732753 -117.197003 132 19ft 0kts
27-Apr-18 18:46 32.732753 -117.197003 132 19ft 0kts
27-Apr-18 18:47 32.732753 -117.197003 132 19ft 0kts
27-Apr-18 18:48 32.732753 -117.197003 132 19ft 0kts
27-Apr-18 18:49 32.732753 -117.197003 132 19ft 0kts
27-Apr-18 18:50 32.732753 -117.197003 132 19ft 0kts
27-Apr-18 18:51 32.732753 -117.197003 132 19ft 0kts
27-Apr-18 18:52 32.732753 -117.197003 132 19ft 0kts
27-Apr-18 18:53 32.732753 -117.197003 132 19ft 0kts
27-Apr-18 18:54 32.732753 -117.197003 132 19ft 0kts
27-Apr-18 18:55 32.732753 -117.197003 132 19ft 0kts
27-Apr-18 18:56 32.732753 -117.197003 132 19ft 0kts
27-Apr-18 18:57 32.732754 -117.197003 132 19ft 0kts
27-Apr-18 18:58 32.732961 -117.197173 160 19ft 2kts
27-Apr-18 18:59 32.733495 -117.197100 198 19ft 2kts
27-Apr-18 19:00 32.734013 -117.196878 199 19ft 1kts
27-Apr-18 19:01 32.734302 -117.197059 105 19ft 1kts
27-Apr-18 19:02 32.734303 -117.197064 105 19ft 0kts
27-Apr-18 19:03 32.734303 -117.197064 105 19ft 0kts
27-Apr-18 19:04 32.734303 -117.197064 105 19ft 0kts
27-Apr-18 19:05 32.734303 -117.197064 105 19ft 0kts
27-Apr-18 19:06 32.733089 -117.192020 106 20ft 32kts
27-Apr-18 19:07 32.730469 -117.181212 106 19ft 36kts
27-Apr-18 19:08 32.729485 -117.177147 100 20ft 0kts
27-Apr-18 19:09 32.729485 -117.177147 100 20ft 0kts
27-Apr-18 19:10 32.729485 -117.177147 100 20ft 0kts
27-Apr-18 19:11 32.729485 -117.177147 100 20ft 0kts
27-Apr-18 19:12 32.729485 -117.177147 100 20ft 0kts
27-Apr-18 19:13 32.729485 -117.177147 100 20ft 0kts
27-Apr-18 19:14 32.729485 -117.177147 100 20ft 0kts
27-Apr-18 19:15 32.729485 -117.177147 100 20ft 0kts
27-Apr-18 19:16 32.729485 -117.177147 100 20ft 0kts
27-Apr-18 19:17 32.729652 -117.176169 70 23ft 13kts
27-Apr-18 19:18 32.730201 -117.175874 293 26ft 0kts
27-Apr-18 19:19 32.736813 -117.202266 288 502ft 152kts
27-Apr-18 19:20 32.759779 -117.250312 305 1712ft 220kts
27-Apr-18 19:21 32.796159 -117.312915 305 3921ft 254kts
27-Apr-18 19:22 32.838366 -117.378509 306 6724ft 265kts
27-Apr-18 19:23 32.881947 -117.446022 306 9444ft 276kts
27-Apr-18 19:24 32.931752 -117.523394 306 11252ft 325kts
27-Apr-18 19:25 32.986779 -117.609295 306 14085ft 338kts
27-Apr-18 19:26 33.040711 -117.693628 305 16611ft 351kts
27-Apr-18 19:27 33.104857 -117.771713 317 18890ft 368kts
27-Apr-18 19:28 33.171965 -117.839501 316 20816ft 379kts
27-Apr-18 19:29 33.245779 -117.923532 312 22824ft 390kts
27-Apr-18 19:30 33.319644 -118.011702 312 24659ft 402kts
27-Apr-18 19:31 33.395954 -118.102909 312 26361ft 413kts
27-Apr-18 19:32 33.477228 -118.200310 312 27975ft 424kts
27-Apr-18 19:33 33.558641 -118.298132 312 29943ft 421kts
27-Apr-18 19:34 33.637723 -118.393441 311 31622ft 418kts
27-Apr-18 19:35 33.716654 -118.488827 311 33124ft 416kts
27-Apr-18 19:36 33.797299 -118.586560 311 34436ft 413kts
27-Apr-18 19:37 33.873920 -118.679790 311 35485ft 413kts
27-Apr-18 19:38 33.952857 -118.776155 311 36052ft 415kts
27-Apr-18 19:39 34.029584 -118.869897 311 36027ft 410kts
27-Apr-18 19:40 34.106731 -118.964418 310 36014ft 408kts
27-Apr-18 19:41 34.172401 -119.065045 297 36023ft 399kts
27-Apr-18 19:42 34.229534 -119.177469 298 36022ft 400kts
27-Apr-18 19:43 34.287702 -119.290522 298 36021ft 400kts
27-Apr-18 19:44 34.345454 -119.403090 298 36017ft 400kts
27-Apr-18 19:45 34.403461 -119.516517 298 36005ft 400kts
27-Apr-18 19:46 34.478876 -119.615777 311 36005ft 406kts
27-Apr-18 19:47 34.556130 -119.710739 310 36003ft 405kts
27-Apr-18 19:48 34.634535 -119.807495 310 36013ft 405kts
27-Apr-18 19:49 34.712795 -119.904294 310 36051ft 406kts
27-Apr-18 19:50 34.790994 -120.001294 310 36090ft 406kts
27-Apr-18 19:51 34.867861 -120.096922 310 36098ft 406kts
27-Apr-18 19:52 34.945449 -120.193724 309 36108ft 404kts
27-Apr-18 19:53 35.023138 -120.290942 309 36112ft 402kts
27-Apr-18 19:54 35.100391 -120.386860 311 36111ft 403kts
27-Apr-18 19:55 35.178942 -120.474672 312 36120ft 404kts
27-Apr-18 19:56 35.260668 -120.566280 312 36122ft 403kts
27-Apr-18 19:57 35.336403 -120.651442 311 36122ft 404kts
27-Apr-18 19:58 35.413258 -120.738355 311 36113ft 403kts
27-Apr-18 19:59 35.494025 -120.828268 316 36093ft 406kts
27-Apr-18 20:00 35.577427 -120.905339 317 36084ft 407kts
27-Apr-18 20:01 35.659827 -120.981799 317 36087ft 407kts
27-Apr-18 20:02 35.742456 -121.058715 316 36085ft 403kts
27-Apr-18 20:03 35.825071 -121.135837 316 36085ft 400kts
27-Apr-18 20:04 35.905094 -121.210731 316 36090ft 396kts
27-Apr-18 20:05 35.987943 -121.288492 316 36111ft 396kts
27-Apr-18 20:06 36.064051 -121.360078 317 36147ft 396kts
27-Apr-18 20:07 36.137763 -121.418749 321 36006ft 396kts
27-Apr-18 20:08 36.208978 -121.474093 321 33498ft 404kts
27-Apr-18 20:09 36.293719 -121.540322 322 30801ft 405kts
27-Apr-18 20:10 36.377419 -121.605934 322 27940ft 410kts
27-Apr-18 20:11 36.448160 -121.661526 322 25854ft 400kts
27-Apr-18 20:12 36.527624 -121.724510 322 24426ft 367kts
27-Apr-18 20:13 36.604632 -121.785568 322 22661ft 374kts
27-Apr-18 20:14 36.677656 -121.843378 322 20930ft 356kts
27-Apr-18 20:15 36.741859 -121.892929 332 19396ft 360kts
27-Apr-18 20:16 36.825553 -121.917777 342 17660ft 350kts
27-Apr-18 20:17 36.909726 -121.941153 342 15903ft 336kts
27-Apr-18 20:18 36.992367 -121.968743 338 13044ft 363kts
27-Apr-18 20:19 37.085441 -122.005121 339 8959ft 359kts
27-Apr-18 20:20 37.157170 -122.033017 339 8005ft 300kts
27-Apr-18 20:21 37.224183 -122.059215 339 7138ft 262kts
27-Apr-18 20:22 37.289353 -122.084845 339 6288ft 257kts
27-Apr-18 20:23 37.354366 -122.110536 339 5970ft 255kts
27-Apr-18 20:24 37.419513 -122.133967 342 5293ft 260kts
27-Apr-18 20:25 37.484987 -122.156447 342 3767ft 250kts
27-Apr-18 20:26 37.538736 -122.183811 305 2983ft 200kts
27-Apr-18 20:27 37.560782 -122.236500 295 2194ft 172kts
27-Apr-18 20:28 37.576434 -122.274588 296 1520ft 146kts
27-Apr-18 20:29 37.589859 -122.306382 296 966ft 128kts
27-Apr-18 20:30 37.605502 -122.343594 294 308ft 128kts
27-Apr-18 20:31 37.618939 -122.378734 269 19ft 14kts
27-Apr-18 20:32 37.618938 -122.378809 269 19ft 0kts

Navigation Log

Ident Type
Flight plan parsing failed, navigation log unavailable